createdAt,value
2018-12-09T18:14:19.779Z,7.90
2018-12-09T18:16:48.159Z,7.80
2018-12-09T18:19:16.965Z,7.80
2018-12-09T18:21:45.595Z,7.80
2018-12-09T18:24:14.488Z,7.90
2018-12-09T18:26:43.187Z,7.90
2018-12-09T18:29:11.610Z,8.00
2018-12-09T18:31:42.686Z,8.00
2018-12-09T18:34:11.539Z,8.10
2018-12-09T18:36:44.502Z,8.00
2018-12-09T18:39:13.133Z,8.00
2018-12-09T18:41:41.525Z,7.90
2018-12-09T18:44:09.974Z,7.90
2018-12-09T18:46:38.398Z,7.70
2018-12-09T18:49:07.039Z,7.70
2018-12-09T18:51:35.487Z,7.70
2018-12-09T18:54:04.998Z,7.80
2018-12-09T18:56:33.411Z,7.80
2018-12-09T18:59:01.818Z,7.70
2018-12-09T19:01:30.294Z,7.70
2018-12-09T19:03:58.880Z,7.70
2018-12-09T19:06:27.407Z,7.70
2018-12-09T19:08:55.935Z,7.70
2018-12-09T19:11:24.500Z,7.70
2018-12-09T19:13:52.943Z,7.80
2018-12-09T19:16:21.512Z,7.80
2018-12-09T19:18:49.922Z,7.80
2018-12-09T19:21:19.211Z,7.70
2018-12-09T19:23:47.622Z,7.70
2018-12-09T19:26:16.877Z,7.70
2018-12-09T19:28:45.447Z,7.60
2018-12-09T19:31:13.859Z,7.70
2018-12-09T19:33:42.370Z,7.70
2018-12-09T19:36:10.829Z,7.70
2018-12-09T19:38:40.325Z,7.80
2018-12-09T19:41:09.932Z,7.80
2018-12-09T19:43:38.442Z,7.80
2018-12-09T19:46:07.687Z,7.70
2018-12-09T19:48:36.131Z,7.80
2018-12-09T19:51:04.925Z,7.90
2018-12-09T19:53:33.987Z,7.90
2018-12-09T19:56:04.430Z,7.90
2018-12-09T19:58:33.090Z,8.00
2018-12-09T20:01:06.699Z,7.90
2018-12-09T20:03:35.135Z,7.90
2018-12-09T20:06:03.675Z,7.80
2018-12-09T20:08:32.111Z,7.80
2018-12-09T20:11:00.562Z,7.70
2018-12-09T20:13:29.031Z,7.70
2018-12-09T20:15:57.502Z,7.70
2018-12-09T20:18:25.959Z,7.80
2018-12-09T20:20:56.112Z,7.70
2018-12-09T20:23:24.911Z,7.70
2018-12-09T20:25:53.434Z,7.60
2018-12-09T20:28:21.964Z,7.50
2018-12-09T20:30:50.387Z,7.40
2018-12-09T20:33:18.808Z,7.30
2018-12-09T20:35:47.787Z,7.40
2018-12-09T20:38:16.260Z,7.50
2018-12-09T20:40:44.694Z,7.40
2018-12-09T20:43:13.145Z,7.40
2018-12-09T20:45:41.584Z,7.40
2018-12-09T20:48:13.539Z,7.50
2018-12-09T20:50:41.505Z,7.40
2018-12-09T20:53:10.599Z,7.40
2018-12-09T20:55:38.997Z,7.40
2018-12-09T20:58:07.500Z,7.30
2018-12-09T21:00:35.921Z,7.20
2018-12-09T21:03:04.398Z,7.30
2018-12-09T21:05:32.827Z,7.10
2018-12-09T21:08:01.266Z,7.10
2018-12-09T21:10:29.802Z,7.10
2018-12-09T21:12:58.296Z,7.00
2018-12-09T21:15:26.675Z,7.00
2018-12-09T21:17:55.106Z,7.00
2018-12-09T21:20:23.553Z,6.90
2018-12-09T21:22:51.992Z,6.90
2018-12-09T21:25:20.694Z,6.90
2018-12-09T21:27:49.170Z,7.00
2018-12-09T21:30:17.680Z,6.90
2018-12-09T21:32:46.205Z,6.80
2018-12-09T21:35:14.633Z,6.70
2018-12-09T21:37:43.062Z,6.70
2018-12-09T21:40:11.480Z,6.70
2018-12-09T21:42:39.900Z,6.70
2018-12-09T21:45:08.566Z,6.70
2018-12-09T21:47:36.963Z,6.60
2018-12-09T21:50:06.075Z,6.60
2018-12-09T21:52:34.496Z,6.60
2018-12-09T21:55:03.093Z,6.60
2018-12-09T21:57:31.506Z,6.60
2018-12-09T21:59:59.883Z,6.70
2018-12-09T22:02:29.251Z,6.60
2018-12-09T22:04:57.627Z,6.60
2018-12-09T22:07:26.080Z,6.60
2018-12-09T22:09:54.464Z,6.50
2018-12-09T22:12:22.995Z,6.60
2018-12-09T22:14:51.514Z,6.50
2018-12-09T22:17:19.940Z,6.40
2018-12-09T22:19:48.487Z,6.40
2018-12-09T22:22:16.920Z,6.40
2018-12-09T22:24:45.324Z,6.50
2018-12-09T22:27:13.736Z,6.50
2018-12-09T22:29:42.313Z,6.40
2018-12-09T22:32:11.391Z,6.40
2018-12-09T22:34:39.805Z,6.50
2018-12-09T22:37:08.240Z,6.50
2018-12-09T22:39:36.748Z,6.40
2018-12-09T22:42:05.119Z,6.40
2018-12-09T22:44:33.503Z,6.40
2018-12-09T22:47:01.890Z,6.40
2018-12-09T22:49:30.730Z,6.30
2018-12-09T22:51:59.127Z,6.40
2018-12-09T22:54:27.535Z,6.40
2018-12-09T22:56:55.924Z,6.50
2018-12-09T22:59:24.328Z,6.50
2018-12-09T23:01:57.991Z,6.50
2018-12-09T23:04:26.391Z,6.50
2018-12-09T23:06:59.028Z,6.50
2018-12-09T23:09:27.406Z,6.50
2018-12-09T23:11:56.507Z,6.50
2018-12-09T23:14:24.902Z,6.50
2018-12-09T23:16:53.319Z,6.40
2018-12-09T23:19:21.739Z,6.40
2018-12-09T23:21:50.163Z,6.40
2018-12-09T23:24:18.578Z,6.40
2018-12-09T23:26:46.971Z,6.40
2018-12-09T23:29:15.383Z,6.30
2018-12-09T23:31:43.950Z,6.30
2018-12-09T23:34:12.379Z,6.40
2018-12-09T23:36:40.775Z,6.40
2018-12-09T23:39:09.180Z,6.30
2018-12-09T23:41:37.572Z,6.30
2018-12-09T23:44:05.977Z,6.30
2018-12-09T23:46:34.360Z,6.30
2018-12-09T23:49:02.815Z,6.30
2018-12-09T23:51:31.192Z,6.20
2018-12-09T23:53:59.579Z,6.10
2018-12-09T23:56:27.964Z,6.20
2018-12-09T23:58:56.338Z,6.30
